createdAt,value
2023-02-16T00:00:33.431Z,0.92
2023-02-16T00:01:33.399Z,0.91
2023-02-16T00:02:33.462Z,0.95
2023-02-16T00:03:33.408Z,0.99
2023-02-16T00:04:33.354Z,1.04
2023-02-16T00:05:33.328Z,0.98
2023-02-16T00:06:33.305Z,0.98
2023-02-16T00:07:33.288Z,0.99
2023-02-16T00:08:33.297Z,0.98
2023-02-16T00:09:33.251Z,0.99
2023-02-16T00:10:33.230Z,0.98
2023-02-16T00:11:33.212Z,1.02
2023-02-16T00:12:33.196Z,1.01
2023-02-16T00:13:33.208Z,0.96
2023-02-16T00:14:33.157Z,1.02
2023-02-16T00:15:33.179Z,1.04
2023-02-16T00:16:33.113Z,0.98
2023-02-16T00:17:33.092Z,0.99
2023-02-16T00:18:33.104Z,0.99
2023-02-16T00:19:33.057Z,1.01
2023-02-16T00:20:33.038Z,0.92
2023-02-16T00:21:33.023Z,0.77
2023-02-16T00:22:33.014Z,0.87
2023-02-16T00:23:33.012Z,0.95
2023-02-16T00:24:32.968Z,0.95
2023-02-16T00:25:32.948Z,0.87
2023-02-16T00:26:32.924Z,0.92
2023-02-16T00:27:32.906Z,0.86
2023-02-16T00:28:32.925Z,0.86
2023-02-16T00:29:32.884Z,0.94
2023-02-16T00:30:32.910Z,0.91
2023-02-16T00:31:32.993Z,0.92
2023-02-16T00:32:32.819Z,1.01
2023-02-16T00:33:32.833Z,0.94
2023-02-16T00:34:32.784Z,0.92
2023-02-16T00:35:32.757Z,0.94
2023-02-16T00:36:33.744Z,0.92
2023-02-16T00:37:32.729Z,0.96
2023-02-16T00:38:32.740Z,0.96
2023-02-16T00:39:32.700Z,1.01
2023-02-16T00:40:32.669Z,0.92
2023-02-16T00:41:32.653Z,0.88
2023-02-16T00:42:32.649Z,0.80
2023-02-16T00:43:32.644Z,0.87
2023-02-16T00:44:32.599Z,0.91
2023-02-16T00:45:32.582Z,0.95
2023-02-16T00:46:32.623Z,0.88
2023-02-16T00:47:32.561Z,0.95
2023-02-16T00:48:32.536Z,0.84
2023-02-16T00:49:33.502Z,0.81
2023-02-16T00:50:32.555Z,0.80
2023-02-16T00:51:32.468Z,0.86
2023-02-16T00:52:32.453Z,0.80
2023-02-16T00:53:32.452Z,0.87
2023-02-16T00:54:32.409Z,0.80
2023-02-16T00:55:32.391Z,0.92
2023-02-16T00:56:32.368Z,0.91
2023-02-16T00:57:32.353Z,0.88
2023-02-16T00:58:32.359Z,0.84
2023-02-16T00:59:32.322Z,0.86
2023-02-16T01:00:32.293Z,0.83
2023-02-16T01:01:32.349Z,0.83
2023-02-16T01:02:32.269Z,0.73
2023-02-16T01:03:32.296Z,0.78
2023-02-16T01:04:32.372Z,0.84
2023-02-16T01:05:32.201Z,0.74
2023-02-16T01:06:32.192Z,0.78
2023-02-16T01:07:32.160Z,0.96
2023-02-16T01:08:32.168Z,0.87
2023-02-16T01:09:32.126Z,0.86
2023-02-16T01:10:32.103Z,0.96
2023-02-16T01:11:32.086Z,0.83
2023-02-16T01:12:32.063Z,0.98
2023-02-16T01:13:32.079Z,0.91
2023-02-16T01:14:32.057Z,0.92
2023-02-16T01:15:32.041Z,0.88
2023-02-16T01:16:31.988Z,0.87
2023-02-16T01:17:31.972Z,0.91
2023-02-16T01:18:31.989Z,0.88
2023-02-16T01:19:31.964Z,0.98
2023-02-16T01:20:31.915Z,0.98
2023-02-16T01:21:31.923Z,0.95
2023-02-16T01:22:31.878Z,0.92
2023-02-16T01:23:31.855Z,0.86
2023-02-16T01:24:31.868Z,0.91
2023-02-16T01:25:31.816Z,0.92
2023-02-16T01:26:31.798Z,0.86
2023-02-16T01:27:31.785Z,0.92
2023-02-16T01:28:31.765Z,0.84
2023-02-16T01:29:31.775Z,0.83
2023-02-16T01:30:31.807Z,0.91
2023-02-16T01:31:31.797Z,0.83
2023-02-16T01:32:31.691Z,0.91
2023-02-16T01:33:31.676Z,0.98
2023-02-16T01:34:31.684Z,0.87
2023-02-16T01:35:31.636Z,0.94
2023-02-16T01:36:31.618Z,0.94
2023-02-16T01:37:31.598Z,0.86
2023-02-16T01:38:31.581Z,0.98
2023-02-16T01:39:31.584Z,0.96
2023-02-16T01:40:31.541Z,0.84
2023-02-16T01:41:31.514Z,0.96
2023-02-16T01:42:31.525Z,0.84
2023-02-16T01:43:31.482Z,0.81
2023-02-16T01:44:31.486Z,0.80
2023-02-16T01:45:31.445Z,0.69
2023-02-16T01:46:31.451Z,0.76
2023-02-16T01:47:31.401Z,0.87
2023-02-16T01:48:31.384Z,0.98
2023-02-16T01:49:31.395Z,0.86
2023-02-16T01:50:31.356Z,0.95
2023-02-16T01:51:31.329Z,0.95
2023-02-16T01:52:31.320Z,0.87
2023-02-16T01:53:31.293Z,0.87
2023-02-16T01:54:31.412Z,0.80
2023-02-16T01:55:31.266Z,0.87
2023-02-16T01:56:31.264Z,0.96
2023-02-16T01:57:31.216Z,0.95
2023-02-16T01:58:31.187Z,0.91
2023-02-16T01:59:32.198Z,0.78
2023-02-16T02:00:31.153Z,0.84
2023-02-16T02:01:31.152Z,0.94
2023-02-16T02:02:31.167Z,0.83
2023-02-16T02:03:31.103Z,0.80
2023-02-16T02:04:31.110Z,0.87
2023-02-16T02:05:31.062Z,0.78
2023-02-16T02:06:31.045Z,0.88
2023-02-16T02:07:31.042Z,0.91
2023-02-16T02:08:32.006Z,0.77
2023-02-16T02:09:31.014Z,0.91
2023-02-16T02:10:30.965Z,0.92
2023-02-16T02:11:30.949Z,0.91
2023-02-16T02:12:30.929Z,0.78
2023-02-16T02:13:30.908Z,0.86
2023-02-16T02:14:30.954Z,0.87
2023-02-16T02:15:30.877Z,0.81
2023-02-16T02:16:30.920Z,0.81
2023-02-16T02:17:30.840Z,0.84
2023-02-16T02:18:30.817Z,0.81
2023-02-16T02:19:30.830Z,0.84
2023-02-16T02:20:30.777Z,0.91
2023-02-16T02:21:30.924Z,0.86
2023-02-16T02:22:30.740Z,0.80
2023-02-16T02:23:30.718Z,0.81
2023-02-16T02:24:30.728Z,0.80
2023-02-16T02:25:30.676Z,0.81
2023-02-16T02:26:30.659Z,0.80
2023-02-16T02:27:30.649Z,0.84
2023-02-16T02:28:30.614Z,0.95
2023-02-16T02:29:30.631Z,0.92
2023-02-16T02:30:30.639Z,1.04
2023-02-16T02:31:30.670Z,0.91
2023-02-16T02:32:30.543Z,0.80
2023-02-16T02:33:30.531Z,0.83
2023-02-16T02:34:30.526Z,0.91
2023-02-16T02:35:30.498Z,0.80
2023-02-16T02:36:30.463Z,0.88
2023-02-16T02:37:30.446Z,0.88
2023-02-16T02:38:30.432Z,0.86
2023-02-16T02:39:30.437Z,0.91
2023-02-16T02:40:30.390Z,0.78
2023-02-16T02:41:30.374Z,0.92
2023-02-16T02:42:30.349Z,0.78
2023-02-16T02:43:30.334Z,0.83
2023-02-16T02:44:30.341Z,0.84
2023-02-16T02:45:30.304Z,0.74
2023-02-16T02:46:30.299Z,0.69
2023-02-16T02:47:30.259Z,0.73
2023-02-16T02:48:30.233Z,0.83
2023-02-16T02:49:30.245Z,0.73
2023-02-16T02:50:30.219Z,0.76
2023-02-16T02:51:30.397Z,0.84
2023-02-16T02:52:30.157Z,0.69
2023-02-16T02:53:30.151Z,0.65
2023-02-16T02:54:30.162Z,0.74
2023-02-16T02:55:30.109Z,0.59
2023-02-16T02:56:30.086Z,0.59
2023-02-16T02:57:30.057Z,0.58
2023-02-16T02:58:31.046Z,0.55
2023-02-16T02:59:30.060Z,0.52
2023-02-16T03:00:30.010Z,0.50
2023-02-16T03:01:30.025Z,0.52
2023-02-16T03:02:29.993Z,0.43
2023-02-16T03:03:29.957Z,0.41
2023-02-16T03:04:29.974Z,0.39
2023-02-16T03:05:29.918Z,0.46
2023-02-16T03:06:29.908Z,0.49
2023-02-16T03:07:29.887Z,0.55
2023-02-16T03:08:29.867Z,0.55
2023-02-16T03:09:29.880Z,0.41
2023-02-16T03:10:29.837Z,0.37
2023-02-16T03:11:29.812Z,0.43
2023-02-16T03:12:29.791Z,0.41
2023-02-16T03:13:29.772Z,0.46
2023-02-16T03:14:29.783Z,0.43
2023-02-16T03:15:29.734Z,0.34
2023-02-16T03:16:29.784Z,0.37
2023-02-16T03:17:29.695Z,0.41
2023-02-16T03:18:29.690Z,0.43
2023-02-16T03:19:29.694Z,0.34
2023-02-16T03:20:29.635Z,0.41
2023-02-16T03:21:29.610Z,0.46
2023-02-16T03:22:30.599Z,0.25
2023-02-16T03:23:29.575Z,0.37
2023-02-16T03:24:29.597Z,0.39
2023-02-16T03:25:29.536Z,0.59
2023-02-16T03:26:29.516Z,0.39
2023-02-16T03:27:29.494Z,0.41
2023-02-16T03:28:29.476Z,0.39
2023-02-16T03:29:29.492Z,0.37
2023-02-16T03:30:29.604Z,0.49
2023-02-16T03:31:29.579Z,0.34
2023-02-16T03:32:29.402Z,0.50
2023-02-16T03:33:29.386Z,0.31
2023-02-16T03:34:29.404Z,0.44
2023-02-16T03:35:29.361Z,0.36
2023-02-16T03:36:29.331Z,0.44
2023-02-16T03:37:29.305Z,0.47
2023-02-16T03:38:29.302Z,0.46
2023-02-16T03:39:29.304Z,0.43
2023-02-16T03:40:29.314Z,0.47
2023-02-16T03:41:29.231Z,0.37
2023-02-16T03:42:29.223Z,0.36
2023-02-16T03:43:29.195Z,0.52
2023-02-16T03:44:29.210Z,0.40
2023-02-16T03:45:29.258Z,0.41
2023-02-16T03:46:29.253Z,0.50
2023-02-16T03:47:29.130Z,0.44
2023-02-16T03:48:29.107Z,0.49
2023-02-16T03:49:29.108Z,0.49
2023-02-16T03:50:29.075Z,0.52
2023-02-16T03:51:29.047Z,0.55
2023-02-16T03:52:29.024Z,0.49
2023-02-16T03:53:29.006Z,0.44
2023-02-16T03:54:29.015Z,0.41
2023-02-16T03:55:28.970Z,0.44
2023-02-16T03:56:28.948Z,0.43
2023-02-16T03:57:28.938Z,0.44
2023-02-16T03:58:28.929Z,0.37
2023-02-16T03:59:28.923Z,0.39
2023-02-16T04:00:28.869Z,0.26
2023-02-16T04:01:28.858Z,0.34
2023-02-16T04:02:29.002Z,0.31
2023-02-16T04:03:28.825Z,0.43
2023-02-16T04:04:28.870Z,0.32
2023-02-16T04:05:28.790Z,0.32
2023-02-16T04:06:28.780Z,0.37
2023-02-16T04:07:31.685Z,0.36
2023-02-16T04:08:28.735Z,0.32
2023-02-16T04:09:28.749Z,0.41
2023-02-16T04:10:28.710Z,0.43
2023-02-16T04:11:28.683Z,0.37
2023-02-16T04:12:28.664Z,0.44
2023-02-16T04:13:28.642Z,0.49
2023-02-16T04:14:28.661Z,0.39
2023-02-16T04:15:28.632Z,0.50
2023-02-16T04:16:28.640Z,0.39
2023-02-16T04:17:28.559Z,0.50
2023-02-16T04:18:28.551Z,0.44
2023-02-16T04:19:28.557Z,0.46
2023-02-16T04:20:28.536Z,0.47
2023-02-16T04:21:28.500Z,0.32
2023-02-16T04:22:28.482Z,0.32
2023-02-16T04:23:28.554Z,0.36
2023-02-16T04:24:28.457Z,0.36
2023-02-16T04:25:28.436Z,0.28
2023-02-16T04:26:28.392Z,0.28
2023-02-16T04:27:28.380Z,0.28
2023-02-16T04:28:28.351Z,0.32
2023-02-16T04:29:28.330Z,0.28
2023-02-16T04:30:28.540Z,0.25
2023-02-16T04:31:28.404Z,0.29
2023-02-16T04:32:28.288Z,0.40
2023-02-16T04:33:28.251Z,0.44
2023-02-16T04:34:28.249Z,0.31
2023-02-16T04:35:28.236Z,0.28
2023-02-16T04:36:28.186Z,0.43
2023-02-16T04:37:28.174Z,0.41
2023-02-16T04:38:28.176Z,0.41
2023-02-16T04:39:28.129Z,0.36
2023-02-16T04:40:28.140Z,0.41
2023-02-16T04:41:28.101Z,0.34
2023-02-16T04:42:28.070Z,0.34
2023-02-16T04:43:28.057Z,0.36
2023-02-16T04:44:28.028Z,0.43
2023-02-16T04:45:28.036Z,0.34
2023-02-16T04:46:28.092Z,0.36
2023-02-16T04:47:28.060Z,0.29
2023-02-16T04:48:27.957Z,0.46
2023-02-16T04:49:27.935Z,0.39
2023-02-16T04:50:27.946Z,0.39
2023-02-16T04:51:27.890Z,0.39
2023-02-16T04:52:27.873Z,0.37
2023-02-16T04:53:27.852Z,0.31
2023-02-16T04:54:27.829Z,0.29
2023-02-16T04:55:27.844Z,0.23
2023-02-16T04:56:27.798Z,0.29
2023-02-16T04:57:27.789Z,0.37
2023-02-16T04:58:27.753Z,0.26
2023-02-16T04:59:27.750Z,0.31
2023-02-16T05:00:27.753Z,0.23
2023-02-16T05:01:27.742Z,0.23
2023-02-16T05:02:27.682Z,0.22
2023-02-16T05:03:27.655Z,0.12
2023-02-16T05:04:27.649Z,0.16
2023-02-16T05:05:27.662Z,0.18
2023-02-16T05:06:27.595Z,0.16
2023-02-16T05:07:27.573Z,0.31
2023-02-16T05:08:27.564Z,0.18
2023-02-16T05:09:27.541Z,0.25
2023-02-16T05:10:27.550Z,0.21
2023-02-16T05:11:27.503Z,0.21
2023-02-16T05:12:27.484Z,0.12
2023-02-16T05:13:27.465Z,0.26
2023-02-16T05:14:27.441Z,0.19
2023-02-16T05:15:27.456Z,0.29
2023-02-16T05:16:27.407Z,0.19
2023-02-16T05:17:27.381Z,0.28
2023-02-16T05:18:27.361Z,0.21
2023-02-16T05:19:27.348Z,0.28
2023-02-16T05:20:27.356Z,0.21
2023-02-16T05:21:27.301Z,0.08
2023-02-16T05:22:27.289Z,0.08
2023-02-16T05:23:27.265Z,0.08
2023-02-16T05:24:28.531Z,0.07
2023-02-16T05:25:28.269Z,0.12
2023-02-16T05:26:27.211Z,0.01
2023-02-16T05:27:27.196Z,-0.03
2023-02-16T05:28:27.269Z,-0.07
2023-02-16T05:29:27.150Z,-0.08
2023-02-16T05:30:27.175Z,-0.18
2023-02-16T05:31:27.270Z,-0.11
2023-02-16T05:32:27.095Z,-0.02
2023-02-16T05:33:27.087Z,0.05
2023-02-16T05:34:27.047Z,0.05
2023-02-16T05:35:28.069Z,0.03
2023-02-16T05:36:27.020Z,0.07
2023-02-16T05:37:27.002Z,0.05
2023-02-16T05:38:26.986Z,0.05
2023-02-16T05:39:26.969Z,0.15
2023-02-16T05:40:26.978Z,0.11
2023-02-16T05:41:26.963Z,0.10
2023-02-16T05:42:26.919Z,0.21
2023-02-16T05:43:26.894Z,0.21
2023-02-16T05:44:26.873Z,0.11
2023-02-16T05:45:26.890Z,0.21
2023-02-16T05:46:26.946Z,0.22
2023-02-16T05:47:26.816Z,0.19
2023-02-16T05:48:26.802Z,0.16
2023-02-16T05:49:26.788Z,0.05
2023-02-16T05:50:26.796Z,0.05
2023-02-16T05:51:26.776Z,0.25
2023-02-16T05:52:26.727Z,0.23
2023-02-16T05:53:26.727Z,0.22
2023-02-16T05:54:26.742Z,0.21
2023-02-16T05:55:26.697Z,0.00
2023-02-16T05:56:26.647Z,0.12
2023-02-16T05:57:27.271Z,0.19
2023-02-16T05:58:26.616Z,0.18
2023-02-16T05:59:26.590Z,0.18
2023-02-16T06:00:26.594Z,0.25
2023-02-16T06:01:26.550Z,0.31
2023-02-16T06:02:26.590Z,0.26
2023-02-16T06:03:26.521Z,0.23
2023-02-16T06:04:26.488Z,0.22
2023-02-16T06:05:26.504Z,0.11
2023-02-16T06:06:26.450Z,0.08
2023-02-16T06:07:26.433Z,0.16
2023-02-16T06:08:26.408Z,0.08
2023-02-16T06:09:26.391Z,0.19
2023-02-16T06:10:26.409Z,0.18
2023-02-16T06:11:26.351Z,0.25
2023-02-16T06:12:26.329Z,0.31
2023-02-16T06:13:26.313Z,0.25
2023-02-16T06:14:26.295Z,0.22
2023-02-16T06:15:26.308Z,0.19
2023-02-16T06:16:26.291Z,0.21
2023-02-16T06:17:26.240Z,0.23
2023-02-16T06:18:26.231Z,0.36
2023-02-16T06:19:26.204Z,0.22
2023-02-16T06:20:26.212Z,0.31
2023-02-16T06:21:26.153Z,0.29
2023-02-16T06:22:27.141Z,0.32
2023-02-16T06:23:26.219Z,0.29
2023-02-16T06:24:26.107Z,0.31
2023-02-16T06:25:26.120Z,0.28
2023-02-16T06:26:26.073Z,0.28
2023-02-16T06:27:26.162Z,0.36
2023-02-16T06:28:26.036Z,0.29
2023-02-16T06:29:26.010Z,0.29
2023-02-16T06:30:26.034Z,0.26
2023-02-16T06:31:26.081Z,0.26
2023-02-16T06:32:26.047Z,0.25
2023-02-16T06:33:25.924Z,0.21
2023-02-16T06:34:25.911Z,0.28
2023-02-16T06:35:25.924Z,0.19
2023-02-16T06:36:25.870Z,0.32
2023-02-16T06:37:25.850Z,0.36
2023-02-16T06:38:25.832Z,0.44
2023-02-16T06:39:25.814Z,0.44
2023-02-16T06:40:25.832Z,0.47
2023-02-16T06:41:25.771Z,0.52
2023-02-16T06:42:25.779Z,0.52
2023-02-16T06:43:25.730Z,0.58
2023-02-16T06:44:25.714Z,0.49
2023-02-16T06:45:25.722Z,0.46
2023-02-16T06:46:25.685Z,0.50
2023-02-16T06:47:25.666Z,0.58
2023-02-16T06:48:25.634Z,0.58
2023-02-16T06:49:27.729Z,0.58
2023-02-16T06:50:26.623Z,0.52
2023-02-16T06:51:25.580Z,0.63
2023-02-16T06:52:25.566Z,0.63
2023-02-16T06:53:25.528Z,0.56
2023-02-16T06:54:25.517Z,0.56
2023-02-16T06:55:25.523Z,0.55
2023-02-16T06:56:25.480Z,0.59
2023-02-16T06:57:25.457Z,0.59
2023-02-16T06:58:25.448Z,0.49
2023-02-16T06:59:25.414Z,0.62
2023-02-16T07:00:25.432Z,0.66
2023-02-16T07:01:25.381Z,0.60
2023-02-16T07:02:25.366Z,0.46
2023-02-16T07:03:25.524Z,0.50
2023-02-16T07:04:25.329Z,0.39
2023-02-16T07:05:25.326Z,0.55
2023-02-16T07:06:25.278Z,0.59
2023-02-16T07:07:25.320Z,0.50
2023-02-16T07:08:25.238Z,0.60
2023-02-16T07:09:25.221Z,0.62
2023-02-16T07:10:25.194Z,0.77
2023-02-16T07:11:25.208Z,0.76
2023-02-16T07:12:25.164Z,0.88
2023-02-16T07:13:25.145Z,0.81
2023-02-16T07:14:25.116Z,0.94
2023-02-16T07:15:25.099Z,0.95
2023-02-16T07:16:25.147Z,1.10
2023-02-16T07:17:25.057Z,1.05
2023-02-16T07:18:25.038Z,0.99
2023-02-16T07:19:25.023Z,1.06
2023-02-16T07:20:25.543Z,1.02
2023-02-16T07:21:25.014Z,1.06
2023-02-16T07:22:24.968Z,1.02
2023-02-16T07:23:24.948Z,1.05
2023-02-16T07:24:24.932Z,1.12
2023-02-16T07:25:24.908Z,0.99
2023-02-16T07:26:24.919Z,1.02
2023-02-16T07:27:24.876Z,0.95
2023-02-16T07:28:24.870Z,1.04
2023-02-16T07:29:24.845Z,1.05
2023-02-16T07:30:24.889Z,1.10
2023-02-16T07:31:24.953Z,1.16
2023-02-16T07:32:24.892Z,1.05
2023-02-16T07:33:24.779Z,1.12
2023-02-16T07:34:24.755Z,1.20
2023-02-16T07:35:24.735Z,1.16
2023-02-16T07:36:24.737Z,1.17
2023-02-16T07:37:24.690Z,1.19
2023-02-16T07:38:24.680Z,1.19
2023-02-16T07:39:24.674Z,1.12
2023-02-16T07:40:25.637Z,0.99
2023-02-16T07:41:24.648Z,1.08
2023-02-16T07:42:24.601Z,0.96
2023-02-16T07:43:24.610Z,0.99
2023-02-16T07:44:24.566Z,1.04
2023-02-16T07:45:24.558Z,1.12
2023-02-16T07:46:24.562Z,1.23
2023-02-16T07:47:24.512Z,1.26
2023-02-16T07:48:24.495Z,1.20
2023-02-16T07:49:24.480Z,1.04
2023-02-16T07:50:24.464Z,1.14
2023-02-16T07:51:24.467Z,1.19
2023-02-16T07:52:24.419Z,1.32
2023-02-16T07:53:24.404Z,1.37
2023-02-16T07:54:24.379Z,1.45
2023-02-16T07:55:24.370Z,1.40
2023-02-16T07:56:24.376Z,1.34
2023-02-16T07:57:24.356Z,1.28
2023-02-16T07:58:24.516Z,1.30
2023-02-16T07:59:24.286Z,1.37
2023-02-16T08:00:24.308Z,1.48
2023-02-16T08:01:24.283Z,1.49
2023-02-16T08:02:24.488Z,1.40
2023-02-16T08:03:24.414Z,1.35
2023-02-16T08:04:24.197Z,1.35
2023-02-16T08:05:24.182Z,1.28
2023-02-16T08:06:24.196Z,1.41
2023-02-16T08:07:24.148Z,1.31
2023-02-16T08:08:24.132Z,1.35
2023-02-16T08:09:24.104Z,1.34
2023-02-16T08:10:24.094Z,1.41
2023-02-16T08:11:24.102Z,1.59
2023-02-16T08:12:24.101Z,1.52
2023-02-16T08:13:24.038Z,1.53
2023-02-16T08:14:24.019Z,1.60
2023-02-16T08:15:23.997Z,1.84
2023-02-16T08:16:24.046Z,1.63
2023-02-16T08:17:23.973Z,1.67
2023-02-16T08:18:23.947Z,1.81
2023-02-16T08:19:23.929Z,1.85
2023-02-16T08:20:35.439Z,1.85
2023-02-16T08:21:25.923Z,1.74
2023-02-16T08:22:23.873Z,2.24
2023-02-16T08:23:23.868Z,2.43
2023-02-16T08:24:23.836Z,2.51
2023-02-16T08:25:23.825Z,2.47
2023-02-16T08:26:23.842Z,2.31
2023-02-16T08:27:23.784Z,2.57
2023-02-16T08:28:23.770Z,2.67
2023-02-16T08:29:23.757Z,2.95
2023-02-16T08:30:23.787Z,3.69
2023-02-16T08:31:23.839Z,4.22
2023-02-16T08:32:23.772Z,4.67
2023-02-16T08:33:23.689Z,5.02
2023-02-16T08:34:23.678Z,5.35
2023-02-16T08:35:23.634Z,5.43
2023-02-16T08:36:23.651Z,5.72
2023-02-16T08:37:23.607Z,6.27
2023-02-16T08:38:23.587Z,6.57
2023-02-16T08:39:23.605Z,7.05
2023-02-16T08:40:23.559Z,7.23
2023-02-16T08:41:23.561Z,7.50
2023-02-16T08:42:23.516Z,7.69
2023-02-16T08:43:23.504Z,7.58
2023-02-16T08:44:23.569Z,7.61
2023-02-16T08:45:23.468Z,7.70
2023-02-16T08:46:23.564Z,7.97
2023-02-16T08:47:23.430Z,8.01
2023-02-16T08:48:23.405Z,7.63
2023-02-16T08:49:23.389Z,7.57
2023-02-16T08:50:23.449Z,7.57
2023-02-16T08:51:23.385Z,7.57
2023-02-16T08:52:23.332Z,7.42
2023-02-16T08:53:23.445Z,7.31
2023-02-16T08:54:23.311Z,7.60
2023-02-16T08:55:23.264Z,7.56
2023-02-16T08:56:23.269Z,7.87
2023-02-16T08:57:23.222Z,7.97
2023-02-16T08:58:23.200Z,8.01
2023-02-16T08:59:23.180Z,8.15
2023-02-16T09:00:23.195Z,7.75
2023-02-16T09:01:23.186Z,7.31
2023-02-16T09:02:23.140Z,6.97
2023-02-16T09:03:23.100Z,6.49
2023-02-16T09:04:23.117Z,6.27
2023-02-16T09:05:23.078Z,6.20
2023-02-16T09:06:23.027Z,6.28
2023-02-16T09:07:23.040Z,6.12
2023-02-16T09:08:22.993Z,5.66
2023-02-16T09:09:22.977Z,5.57
2023-02-16T09:10:22.956Z,5.20
2023-02-16T09:11:22.985Z,5.05
2023-02-16T09:12:22.934Z,5.02
2023-02-16T09:13:23.895Z,5.26
2023-02-16T09:14:22.896Z,5.39
2023-02-16T09:15:22.861Z,5.68
2023-02-16T09:16:22.952Z,5.98
2023-02-16T09:17:22.838Z,6.02
2023-02-16T09:18:22.798Z,6.19
2023-02-16T09:19:22.771Z,6.04
2023-02-16T09:20:22.752Z,6.30
2023-02-16T09:21:22.737Z,6.57
2023-02-16T09:22:22.739Z,6.64
2023-02-16T09:23:22.763Z,6.72
2023-02-16T09:24:22.667Z,6.95
2023-02-16T09:25:22.680Z,6.79
2023-02-16T09:26:22.642Z,6.84
2023-02-16T09:27:22.718Z,7.06
2023-02-16T09:28:22.593Z,7.03
2023-02-16T09:29:22.569Z,7.20
2023-02-16T09:30:22.608Z,6.89
2023-02-16T09:31:22.642Z,6.81
2023-02-16T09:32:22.552Z,6.79
2023-02-16T09:33:22.490Z,6.66
2023-02-16T09:34:22.473Z,6.48
2023-02-16T09:35:22.457Z,6.45
2023-02-16T09:36:22.445Z,6.14
2023-02-16T09:37:22.445Z,5.66
2023-02-16T09:38:22.398Z,5.50
2023-02-16T09:39:22.392Z,5.20
2023-02-16T09:40:22.363Z,5.28
2023-02-16T09:41:23.339Z,5.08
2023-02-16T09:42:22.359Z,5.05
2023-02-16T09:43:22.304Z,5.08
2023-02-16T09:44:22.283Z,4.90
2023-02-16T09:45:22.264Z,4.93
2023-02-16T09:46:22.817Z,4.96
2023-02-16T09:47:23.263Z,5.02
2023-02-16T09:48:22.212Z,4.90
2023-02-16T09:49:22.197Z,4.89
2023-02-16T09:50:38.176Z,4.92
2023-02-16T09:51:33.744Z,4.55
2023-02-16T09:52:24.182Z,4.55
2023-02-16T09:53:22.126Z,4.48
2023-02-16T09:54:22.110Z,4.40
2023-02-16T09:55:22.103Z,4.50
2023-02-16T09:56:22.078Z,4.59
2023-02-16T09:57:22.100Z,4.56
2023-02-16T09:58:22.045Z,4.56
2023-02-16T09:59:22.027Z,4.45
2023-02-16T10:00:22.012Z,4.32
2023-02-16T10:01:22.036Z,4.37
2023-02-16T10:02:22.026Z,4.22
2023-02-16T10:03:21.956Z,4.30
2023-02-16T10:04:21.971Z,4.31
2023-02-16T10:05:21.959Z,4.23
2023-02-16T10:06:21.918Z,4.12
2023-02-16T10:07:21.951Z,4.05
2023-02-16T10:08:21.878Z,4.08
2023-02-16T10:09:21.888Z,4.19
2023-02-16T10:10:21.855Z,4.30
2023-02-16T10:11:21.825Z,4.30
2023-02-16T10:12:21.848Z,4.32
2023-02-16T10:13:21.793Z,4.02
2023-02-16T10:14:21.781Z,3.99
2023-02-16T10:15:21.755Z,3.86
2023-02-16T10:16:21.740Z,3.86
2023-02-16T10:17:21.749Z,3.86
2023-02-16T10:18:21.702Z,3.87
2023-02-16T10:19:21.685Z,3.81
2023-02-16T10:20:21.671Z,3.87
2023-02-16T10:21:21.647Z,3.94
2023-02-16T10:22:21.665Z,3.96
2023-02-16T10:23:21.614Z,4.01
2023-02-16T10:24:21.596Z,3.96
2023-02-16T10:25:21.615Z,4.05
2023-02-16T10:26:21.565Z,4.02
2023-02-16T10:27:21.572Z,4.30
2023-02-16T10:28:22.946Z,4.34
2023-02-16T10:29:22.506Z,4.49
2023-02-16T10:30:21.584Z,4.32
2023-02-16T10:31:21.540Z,4.35
2023-02-16T10:32:21.488Z,4.48
2023-02-16T10:33:21.433Z,4.49
2023-02-16T10:34:23.149Z,4.67
2023-02-16T10:35:22.397Z,4.50
2023-02-16T10:36:21.380Z,4.59
2023-02-16T10:37:21.384Z,4.90
2023-02-16T10:38:22.348Z,5.15
2023-02-16T10:39:21.331Z,5.50
2023-02-16T10:40:23.295Z,6.02
2023-02-16T10:41:22.294Z,6.22
2023-02-16T10:42:21.315Z,6.52
2023-02-16T10:43:21.274Z,6.69
2023-02-16T10:44:21.246Z,6.72
2023-02-16T10:45:21.230Z,6.96
2023-02-16T10:46:21.268Z,7.14
2023-02-16T10:47:21.223Z,7.24
2023-02-16T10:48:21.184Z,7.20
2023-02-16T10:49:21.163Z,7.36
2023-02-16T10:50:21.144Z,7.28
2023-02-16T10:51:21.127Z,6.95
2023-02-16T10:52:21.146Z,6.89
2023-02-16T10:53:21.109Z,6.72
2023-02-16T10:54:21.072Z,6.79
2023-02-16T10:55:21.055Z,6.77
2023-02-16T10:56:21.037Z,6.66
2023-02-16T10:57:21.053Z,6.74
2023-02-16T10:58:22.558Z,6.75
2023-02-16T10:59:21.991Z,6.67
2023-02-16T11:00:20.975Z,6.49
2023-02-16T11:01:21.060Z,6.31
2023-02-16T11:02:20.985Z,6.20
2023-02-16T11:03:20.921Z,6.08
2023-02-16T11:04:22.869Z,5.91
2023-02-16T11:05:21.883Z,5.86
2023-02-16T11:06:20.868Z,5.87
2023-02-16T11:07:20.873Z,5.90
2023-02-16T11:08:20.828Z,5.97
2023-02-16T11:09:20.809Z,5.98
2023-02-16T11:10:20.796Z,5.87
2023-02-16T11:11:20.795Z,5.91
2023-02-16T11:12:20.805Z,5.93
2023-02-16T11:13:20.803Z,6.01
2023-02-16T11:14:20.826Z,6.04
2023-02-16T11:15:20.712Z,6.12
2023-02-16T11:16:20.731Z,6.17
2023-02-16T11:17:20.712Z,6.19
2023-02-16T11:18:20.659Z,6.26
2023-02-16T11:19:20.679Z,6.46
2023-02-16T11:20:20.627Z,6.59
2023-02-16T11:21:20.615Z,6.77
2023-02-16T11:22:20.624Z,6.69
2023-02-16T11:23:20.571Z,6.84
2023-02-16T11:24:20.564Z,6.89
2023-02-16T11:25:20.539Z,6.87
2023-02-16T11:26:20.525Z,6.88
2023-02-16T11:27:20.540Z,6.92
2023-02-16T11:28:20.499Z,6.78
2023-02-16T11:29:20.476Z,6.66
2023-02-16T11:30:20.510Z,6.72
2023-02-16T11:31:20.539Z,6.79
2023-02-16T11:32:20.425Z,6.88
2023-02-16T11:33:20.442Z,6.87
2023-02-16T11:34:20.389Z,6.88
2023-02-16T11:35:20.369Z,6.75
2023-02-16T11:36:20.357Z,6.69
2023-02-16T11:37:20.339Z,6.79
2023-02-16T11:38:20.352Z,6.93
2023-02-16T11:39:20.303Z,6.84
2023-02-16T11:40:20.284Z,6.96
2023-02-16T11:41:20.263Z,6.87
2023-02-16T11:42:20.249Z,6.63
2023-02-16T11:43:20.262Z,6.72
2023-02-16T11:44:20.210Z,6.49
2023-02-16T11:45:20.192Z,6.57
2023-02-16T11:46:20.233Z,6.70
2023-02-16T11:47:20.162Z,6.78
2023-02-16T11:48:20.167Z,6.67
2023-02-16T11:49:20.125Z,6.52
2023-02-16T11:50:20.105Z,6.70
2023-02-16T11:51:20.103Z,6.64
2023-02-16T11:52:20.077Z,6.69
2023-02-16T11:53:20.079Z,6.96
2023-02-16T11:54:20.034Z,7.25
2023-02-16T11:55:20.014Z,7.45
2023-02-16T11:56:19.993Z,7.39
2023-02-16T11:57:19.982Z,7.20
2023-02-16T11:58:19.996Z,7.23
2023-02-16T11:59:19.951Z,7.10
2023-02-16T12:00:19.931Z,7.14
2023-02-16T12:01:19.908Z,7.05
2023-02-16T12:02:19.895Z,6.70
2023-02-16T12:03:19.905Z,6.63
2023-02-16T12:04:19.860Z,6.64
2023-02-16T12:05:19.893Z,6.62
2023-02-16T12:06:19.824Z,6.74
2023-02-16T12:07:19.806Z,6.60
2023-02-16T12:08:19.838Z,6.70
2023-02-16T12:09:19.769Z,6.93
2023-02-16T12:10:19.757Z,6.92
2023-02-16T12:11:19.741Z,6.87
2023-02-16T12:12:19.718Z,6.82
2023-02-16T12:13:19.742Z,6.93
2023-02-16T12:14:19.705Z,6.77
2023-02-16T12:15:19.694Z,6.72
2023-02-16T12:16:19.683Z,6.67
2023-02-16T12:17:19.637Z,6.64
2023-02-16T12:18:19.648Z,6.66
2023-02-16T12:19:19.604Z,6.81
2023-02-16T12:20:19.590Z,6.77
2023-02-16T12:21:19.576Z,6.66
2023-02-16T12:22:19.560Z,6.69
2023-02-16T12:23:19.562Z,6.88
2023-02-16T12:24:19.514Z,7.11
2023-02-16T12:25:19.502Z,7.10
2023-02-16T12:26:19.483Z,6.95
2023-02-16T12:27:19.463Z,7.07
2023-02-16T12:28:19.477Z,6.85
2023-02-16T12:29:19.430Z,6.56
2023-02-16T12:30:19.417Z,6.52
2023-02-16T12:31:19.483Z,6.63
2023-02-16T12:32:20.374Z,6.64
2023-02-16T12:33:19.386Z,6.59
2023-02-16T12:34:19.342Z,6.69
2023-02-16T12:35:19.355Z,6.78
2023-02-16T12:36:19.315Z,6.95
2023-02-16T12:37:19.297Z,7.06
2023-02-16T12:38:19.302Z,7.03
2023-02-16T12:39:19.262Z,7.14
2023-02-16T12:40:19.238Z,7.23
2023-02-16T12:41:19.221Z,7.32
2023-02-16T12:42:19.212Z,7.36
2023-02-16T12:43:19.217Z,7.33
2023-02-16T12:44:19.183Z,7.39
2023-02-16T12:45:19.150Z,7.56
2023-02-16T12:46:19.131Z,7.47
2023-02-16T12:47:19.116Z,7.36
2023-02-16T12:48:19.127Z,7.33
2023-02-16T12:49:19.084Z,7.25
2023-02-16T12:50:19.063Z,7.17
2023-02-16T12:51:19.047Z,7.10
2023-02-16T12:52:19.028Z,7.13
2023-02-16T12:53:19.041Z,7.23
2023-02-16T12:54:18.996Z,7.15
2023-02-16T12:55:18.979Z,6.99
2023-02-16T12:56:18.963Z,7.00
2023-02-16T12:57:18.958Z,6.84
2023-02-16T12:58:18.955Z,6.72
2023-02-16T12:59:18.922Z,6.69
2023-02-16T13:00:18.890Z,6.67
2023-02-16T13:01:18.993Z,6.72
2023-02-16T13:02:18.862Z,6.57
2023-02-16T13:03:18.918Z,6.49
2023-02-16T13:04:18.830Z,6.48
2023-02-16T13:05:18.811Z,6.56
2023-02-16T13:06:18.811Z,6.48
2023-02-16T13:07:18.787Z,6.51
2023-02-16T13:08:18.801Z,6.48
2023-02-16T13:09:18.747Z,6.56
2023-02-16T13:10:18.729Z,6.52
2023-02-16T13:11:18.810Z,6.60
2023-02-16T13:12:18.701Z,6.48
2023-02-16T13:13:18.705Z,6.59
2023-02-16T13:14:18.682Z,6.84
2023-02-16T13:15:18.642Z,6.87
2023-02-16T13:16:29.637Z,6.87
2023-02-16T13:17:20.635Z,6.84
2023-02-16T13:18:18.649Z,6.78